createdAt,value
2022-09-24T00:00:27.568Z,72.86
2022-09-24T00:02:57.109Z,72.99
2022-09-24T00:05:26.802Z,72.91
2022-09-24T00:07:56.292Z,73.37
2022-09-24T00:10:25.835Z,73.26
2022-09-24T00:12:55.353Z,73.53
2022-09-24T00:15:27.451Z,73.72
2022-09-24T00:17:57.236Z,73.86
2022-09-24T00:20:26.761Z,73.98
2022-09-24T00:22:56.265Z,74.15
2022-09-24T00:25:38.415Z,74.30
2022-09-24T00:28:09.095Z,74.68
2022-09-24T00:30:43.932Z,74.83
2022-09-24T00:33:13.809Z,75.25
2022-09-24T00:35:43.520Z,75.43
2022-09-24T00:38:13.099Z,75.73
2022-09-24T00:40:42.729Z,75.60
2022-09-24T00:43:26.408Z,75.82
2022-09-24T00:46:01.036Z,75.81
2022-09-24T00:48:34.159Z,75.84
2022-09-24T00:51:03.886Z,75.81
2022-09-24T00:53:33.999Z,75.77
2022-09-24T00:56:05.281Z,76.02
2022-09-24T00:58:34.844Z,75.72
2022-09-24T01:01:08.822Z,75.69
2022-09-24T01:03:42.507Z,75.62
2022-09-24T01:06:12.125Z,75.68
2022-09-24T01:08:42.238Z,75.74
2022-09-24T01:11:23.025Z,75.93
2022-09-24T01:14:06.342Z,75.88
2022-09-24T01:16:42.902Z,75.69
2022-09-24T01:19:21.492Z,75.62
2022-09-24T01:21:55.377Z,75.72
2022-09-24T01:24:48.882Z,75.69
2022-09-24T01:27:20.997Z,75.69
2022-09-24T01:30:04.262Z,75.88
2022-09-24T01:32:38.156Z,75.83
2022-09-24T01:35:13.524Z,75.80
2022-09-24T01:37:44.724Z,75.87
2022-09-24T01:40:15.184Z,75.97
2022-09-24T01:42:46.400Z,75.73
2022-09-24T01:45:20.088Z,75.82
2022-09-24T01:47:50.202Z,75.98
2022-09-24T01:50:21.758Z,76.09
2022-09-24T01:52:55.426Z,76.00
2022-09-24T01:55:28.302Z,76.17
2022-09-24T01:58:01.396Z,76.26
2022-09-24T02:00:34.222Z,76.32
2022-09-24T02:03:11.719Z,76.44
2022-09-24T02:05:44.704Z,76.70
2022-09-24T02:08:18.005Z,76.56
2022-09-24T02:10:52.729Z,76.76
2022-09-24T02:13:25.344Z,76.78
2022-09-24T02:16:01.033Z,76.76
2022-09-24T02:18:34.222Z,76.67
2022-09-24T02:21:06.989Z,76.83
2022-09-24T02:23:39.806Z,76.58
2022-09-24T02:26:09.742Z,76.66
2022-09-24T02:28:39.357Z,76.71
2022-09-24T02:31:14.751Z,76.94
2022-09-24T02:33:59.094Z,76.86
2022-09-24T02:36:28.774Z,77.19
2022-09-24T02:38:58.743Z,77.19
2022-09-24T02:41:28.897Z,77.30
2022-09-24T02:43:58.412Z,77.26
2022-09-24T02:46:30.626Z,77.25
2022-09-24T02:49:00.281Z,77.20
2022-09-24T02:51:30.579Z,77.28
2022-09-24T02:54:01.478Z,77.47
2022-09-24T02:56:31.081Z,77.22
2022-09-24T02:59:01.317Z,77.54
2022-09-24T03:01:34.340Z,77.24
2022-09-24T03:04:04.911Z,77.38
2022-09-24T03:06:34.874Z,77.53
2022-09-24T03:09:05.405Z,77.56
2022-09-24T03:11:35.741Z,77.48
2022-09-24T03:14:05.434Z,77.69
2022-09-24T03:16:37.578Z,77.68
2022-09-24T03:19:07.131Z,77.51
2022-09-24T03:21:37.130Z,77.67
2022-09-24T03:24:06.929Z,77.41
2022-09-24T03:26:37.305Z,77.58
2022-09-24T03:29:06.860Z,77.79
2022-09-24T03:31:36.437Z,77.53
2022-09-24T03:34:06.088Z,77.67
2022-09-24T03:36:35.595Z,77.51
2022-09-24T03:39:05.760Z,77.41
2022-09-24T03:41:35.258Z,77.84
2022-09-24T03:44:04.952Z,77.70
2022-09-24T03:46:34.533Z,77.61
2022-09-24T03:49:06.657Z,77.62
2022-09-24T03:51:36.164Z,77.69
2022-09-24T03:54:05.757Z,77.79
2022-09-24T03:56:35.355Z,77.75
2022-09-24T03:59:04.875Z,77.92
2022-09-24T04:01:35.459Z,78.15
2022-09-24T04:04:08.085Z,78.05
2022-09-24T04:06:37.677Z,78.45
2022-09-24T04:09:07.290Z,78.47
2022-09-24T04:11:36.904Z,78.52
2022-09-24T04:14:06.956Z,78.64
2022-09-24T04:16:36.670Z,78.63
2022-09-24T04:19:08.816Z,78.78
2022-09-24T04:21:38.315Z,78.82
2022-09-24T04:24:08.386Z,78.91
2022-09-24T04:26:38.026Z,79.04
2022-09-24T04:29:08.083Z,78.96
2022-09-24T04:31:38.580Z,79.03
2022-09-24T04:34:11.651Z,79.11
2022-09-24T04:36:41.219Z,79.20
2022-09-24T04:39:10.811Z,79.11
2022-09-24T04:41:40.707Z,79.01
2022-09-24T04:44:11.287Z,79.06
2022-09-24T04:46:40.970Z,78.83
2022-09-24T04:49:14.254Z,78.84
2022-09-24T04:51:44.349Z,78.77
2022-09-24T04:54:14.165Z,79.04
2022-09-24T04:56:43.663Z,78.79
2022-09-24T04:59:13.163Z,78.91
2022-09-24T05:01:42.855Z,78.80
2022-09-24T05:04:15.019Z,78.82
2022-09-24T05:06:44.777Z,78.80
2022-09-24T05:09:14.506Z,78.86
2022-09-24T05:11:44.267Z,78.84
2022-09-24T05:14:13.763Z,78.81
2022-09-24T05:16:43.313Z,78.86
2022-09-24T05:19:15.576Z,78.73
2022-09-24T05:21:45.164Z,78.82
2022-09-24T05:24:14.874Z,78.97
2022-09-24T05:26:57.144Z,78.85
2022-09-24T05:29:26.664Z,79.00
2022-09-24T05:31:56.241Z,78.77
2022-09-24T05:34:28.345Z,79.08
2022-09-24T05:36:58.263Z,79.04
2022-09-24T05:39:32.842Z,79.27
2022-09-24T05:42:04.314Z,79.21
2022-09-24T05:44:34.508Z,79.25
2022-09-24T05:47:04.002Z,79.29
2022-09-24T05:49:36.111Z,79.33
2022-09-24T05:52:05.838Z,79.32
2022-09-24T05:54:35.405Z,79.36
2022-09-24T05:57:04.906Z,79.43
2022-09-24T05:59:34.426Z,79.52
2022-09-24T06:02:04.565Z,79.36
2022-09-24T06:04:36.737Z,79.50
2022-09-24T06:07:06.312Z,79.49
2022-09-24T06:09:35.913Z,79.48
2022-09-24T06:12:05.984Z,79.54
2022-09-24T06:14:35.538Z,79.49
2022-09-24T06:17:05.213Z,79.42
2022-09-24T06:19:37.650Z,79.25
2022-09-24T06:22:07.178Z,79.27
2022-09-24T06:24:37.102Z,79.26
2022-09-24T06:27:06.847Z,79.12
2022-09-24T06:29:36.442Z,78.90
2022-09-24T06:32:06.048Z,79.00
2022-09-24T06:34:38.225Z,78.56
2022-09-24T06:37:07.774Z,78.39
2022-09-24T06:39:37.329Z,78.13
2022-09-24T06:42:07.220Z,77.76
2022-09-24T06:44:37.268Z,77.34
2022-09-24T06:47:06.864Z,77.20
2022-09-24T06:49:39.002Z,76.69
2022-09-24T06:52:08.550Z,76.33
2022-09-24T06:54:38.811Z,75.99
2022-09-24T06:57:09.310Z,75.30
2022-09-24T06:59:38.896Z,75.06
2022-09-24T07:02:10.086Z,74.47
2022-09-24T07:04:42.298Z,73.99
2022-09-24T07:07:24.317Z,73.31
2022-09-24T07:09:54.037Z,73.09
2022-09-24T07:12:23.605Z,72.83
2022-09-24T07:14:53.191Z,71.82
2022-09-24T07:17:22.899Z,71.40
2022-09-24T07:19:55.065Z,71.24
2022-09-24T07:22:25.114Z,70.83
2022-09-24T07:24:54.913Z,70.28
2022-09-24T07:27:24.539Z,69.83
2022-09-24T07:29:55.022Z,69.24
2022-09-24T07:32:29.560Z,68.97
2022-09-24T07:35:02.259Z,68.54
2022-09-24T07:37:32.650Z,68.35
2022-09-24T07:40:02.235Z,68.27
2022-09-24T07:42:31.800Z,67.88
2022-09-24T07:45:01.747Z,67.73
2022-09-24T07:47:31.681Z,67.73
2022-09-24T07:50:04.315Z,67.18
2022-09-24T07:52:33.866Z,66.76
2022-09-24T07:55:03.422Z,66.56
2022-09-24T07:57:32.953Z,66.50
2022-09-24T08:00:02.493Z,65.88
2022-09-24T08:02:41.112Z,65.74
2022-09-24T08:05:15.359Z,65.15
2022-09-24T08:07:45.475Z,64.30
2022-09-24T08:10:15.004Z,64.02
2022-09-24T08:12:44.557Z,63.67
2022-09-24T08:15:14.159Z,62.25
2022-09-24T08:17:43.748Z,61.63
2022-09-24T08:20:15.942Z,60.19
2022-09-24T08:22:45.544Z,59.51
2022-09-24T08:25:15.166Z,58.93
2022-09-24T08:27:44.716Z,58.59
2022-09-24T08:30:15.855Z,57.86
2022-09-24T08:32:49.321Z,58.05
2022-09-24T08:35:21.503Z,57.99
2022-09-24T08:37:51.047Z,57.92
2022-09-24T08:40:23.311Z,57.84
2022-09-24T08:42:57.580Z,58.31
2022-09-24T08:45:39.711Z,58.56
2022-09-24T08:48:14.756Z,58.89
2022-09-24T08:50:51.261Z,58.48
2022-09-24T08:53:24.417Z,58.92
2022-09-24T08:55:56.010Z,59.25
2022-09-24T08:58:34.558Z,58.66
2022-09-24T09:01:09.034Z,58.85
2022-09-24T09:03:40.550Z,58.97
2022-09-24T09:06:37.405Z,59.20
2022-09-24T09:09:12.280Z,59.15
2022-09-24T09:11:43.045Z,59.12
2022-09-24T09:14:17.590Z,59.18
2022-09-24T09:16:50.614Z,59.86
2022-09-24T09:19:20.607Z,60.46
2022-09-24T09:21:55.719Z,60.28
2022-09-24T09:24:29.938Z,60.24
2022-09-24T09:26:59.665Z,60.87
2022-09-24T09:29:30.836Z,60.91
2022-09-24T09:32:09.952Z,61.16
2022-09-24T09:34:48.786Z,60.93
2022-09-24T09:37:27.760Z,60.70
2022-09-24T09:40:02.858Z,60.40
2022-09-24T09:42:36.398Z,58.87
2022-09-24T09:45:25.481Z,57.99
2022-09-24T09:47:58.648Z,56.66
2022-09-24T09:50:31.503Z,56.18
2022-09-24T09:53:04.878Z,56.27
2022-09-24T09:55:36.344Z,56.22
2022-09-24T09:58:14.426Z,55.32
2022-09-24T10:00:49.706Z,55.78
2022-09-24T10:03:28.704Z,55.42
2022-09-24T10:05:59.870Z,55.31
2022-09-24T10:08:32.411Z,55.24
2022-09-24T10:11:04.211Z,54.67
2022-09-24T10:13:34.085Z,54.94
2022-09-24T10:16:06.394Z,54.41
2022-09-24T10:18:38.020Z,54.73
2022-09-24T10:21:12.029Z,54.38
2022-09-24T10:23:45.218Z,54.37
2022-09-24T10:26:14.778Z,54.38
2022-09-24T10:29:01.269Z,54.72
2022-09-24T10:31:33.609Z,54.59
2022-09-24T10:34:04.242Z,54.39
2022-09-24T10:36:35.224Z,54.50
2022-09-24T10:39:13.545Z,55.10
2022-09-24T10:41:49.093Z,54.81
2022-09-24T10:44:19.741Z,55.22
2022-09-24T10:46:57.396Z,55.49
2022-09-24T10:49:36.697Z,55.76
2022-09-24T10:52:12.665Z,55.66
2022-09-24T10:54:52.324Z,56.07
2022-09-24T10:57:28.060Z,56.03
2022-09-24T11:00:04.804Z,55.94
2022-09-24T11:02:59.512Z,55.50
2022-09-24T11:05:31.971Z,55.85
2022-09-24T11:08:17.474Z,55.78
2022-09-24T11:11:00.905Z,55.22
2022-09-24T11:13:35.721Z,55.21
2022-09-24T11:16:32.886Z,54.96
2022-09-24T11:19:04.540Z,55.04
2022-09-24T11:21:58.044Z,54.70
2022-09-24T11:24:48.429Z,55.02
2022-09-24T11:27:35.220Z,54.50
2022-09-24T11:30:12.611Z,54.76
2022-09-24T11:32:52.393Z,54.83
2022-09-24T11:35:31.012Z,54.85
2022-09-24T11:38:03.298Z,54.54
2022-09-24T11:40:46.718Z,54.36
2022-09-24T11:43:46.040Z,54.68
2022-09-24T11:46:25.665Z,54.69
2022-09-24T11:49:30.305Z,54.17
2022-09-24T11:52:04.496Z,54.35
2022-09-24T11:54:37.910Z,54.60
2022-09-24T11:57:13.840Z,54.80
2022-09-24T11:59:52.390Z,54.69
2022-09-24T12:02:25.968Z,54.71
2022-09-24T12:05:00.433Z,54.96
2022-09-24T12:07:34.472Z,55.11
2022-09-24T12:10:07.120Z,55.32
2022-09-24T12:12:40.722Z,55.36
2022-09-24T12:15:19.304Z,55.69
2022-09-24T12:17:52.815Z,55.58
2022-09-24T12:20:24.872Z,56.01
2022-09-24T12:23:00.304Z,56.35
2022-09-24T12:25:32.116Z,56.54
2022-09-24T12:28:02.245Z,57.02
2022-09-24T12:30:52.504Z,56.91
2022-09-24T12:33:27.895Z,56.82
2022-09-24T12:36:10.302Z,57.17
2022-09-24T12:38:42.553Z,56.91
2022-09-24T12:41:23.511Z,57.41
2022-09-24T12:43:56.643Z,57.17
2022-09-24T12:46:31.540Z,57.21
2022-09-24T12:49:01.433Z,57.31
2022-09-24T12:51:37.901Z,57.20
2022-09-24T12:54:20.097Z,56.79
2022-09-24T12:56:49.720Z,56.60
2022-09-24T12:59:29.378Z,55.93
2022-09-24T13:02:10.201Z,55.63
2022-09-24T13:04:40.328Z,55.25
2022-09-24T13:07:31.449Z,54.90
2022-09-24T13:10:01.033Z,54.69
2022-09-24T13:12:34.790Z,54.84
2022-09-24T13:15:08.006Z,54.56
2022-09-24T13:17:40.949Z,54.77
2022-09-24T13:20:18.735Z,54.86
2022-09-24T13:22:58.845Z,54.74
2022-09-24T13:25:29.182Z,55.09
2022-09-24T13:28:01.540Z,55.07
2022-09-24T13:30:40.644Z,55.57
2022-09-24T13:33:24.189Z,55.56
2022-09-24T13:36:06.366Z,56.20
2022-09-24T13:38:38.636Z,56.42
2022-09-24T13:41:17.233Z,56.44
2022-09-24T13:43:49.980Z,56.15
2022-09-24T13:46:21.075Z,56.20
2022-09-24T13:48:55.728Z,56.41
2022-09-24T13:51:29.223Z,56.63
2022-09-24T13:54:01.655Z,56.54
2022-09-24T13:56:31.326Z,56.65
2022-09-24T13:59:08.374Z,56.27
2022-09-24T14:01:41.639Z,56.67
2022-09-24T14:04:21.381Z,56.55
2022-09-24T14:06:53.506Z,56.48
2022-09-24T14:09:31.477Z,56.52
2022-09-24T14:12:03.341Z,57.05
2022-09-24T14:14:37.708Z,56.69
2022-09-24T14:17:10.845Z,56.92
2022-09-24T14:19:43.060Z,57.21
2022-09-24T14:22:17.409Z,57.81
2022-09-24T14:24:51.807Z,57.47
2022-09-24T14:27:23.511Z,57.62
2022-09-24T14:29:56.158Z,57.95
2022-09-24T14:32:28.120Z,57.90
2022-09-24T14:35:01.484Z,58.14
2022-09-24T14:37:34.017Z,58.47
2022-09-24T14:40:07.176Z,58.23
2022-09-24T14:42:40.634Z,58.82
2022-09-24T14:45:11.374Z,59.10
2022-09-24T14:47:40.929Z,59.15
2022-09-24T14:50:36.313Z,59.75
2022-09-24T14:53:15.242Z,60.11
2022-09-24T14:55:46.980Z,60.28
2022-09-24T14:58:36.429Z,60.33
2022-09-24T15:01:10.170Z,60.46
2022-09-24T15:03:42.686Z,60.90
2022-09-24T15:06:26.497Z,61.26
2022-09-24T15:09:02.981Z,61.87
2022-09-24T15:11:34.516Z,61.96
2022-09-24T15:14:06.327Z,62.37
2022-09-24T15:16:37.624Z,62.85
2022-09-24T15:19:19.749Z,62.92
2022-09-24T15:21:53.599Z,62.92
2022-09-24T15:24:23.220Z,63.12
2022-09-24T15:27:03.702Z,63.21
2022-09-24T15:29:33.363Z,63.37
2022-09-24T15:32:02.977Z,63.59
2022-09-24T15:34:32.534Z,63.55
2022-09-24T15:37:04.739Z,63.44
2022-09-24T15:39:34.605Z,63.25
2022-09-24T15:42:04.153Z,63.66
2022-09-24T15:44:34.354Z,63.83
2022-09-24T15:47:04.158Z,63.79
2022-09-24T15:49:33.854Z,64.02
2022-09-24T15:52:09.230Z,64.24
2022-09-24T15:54:38.760Z,64.64
2022-09-24T15:57:08.349Z,64.75
2022-09-24T15:59:37.861Z,65.27
2022-09-24T16:02:14.020Z,65.43
2022-09-24T16:04:43.618Z,65.58
2022-09-24T16:07:15.853Z,66.15
2022-09-24T16:09:45.618Z,66.16
2022-09-24T16:12:16.953Z,66.67
2022-09-24T16:14:46.999Z,66.76
2022-09-24T16:17:16.662Z,67.25
2022-09-24T16:19:46.226Z,67.45
2022-09-24T16:22:20.588Z,68.07
2022-09-24T16:24:50.440Z,68.22
2022-09-24T16:27:20.043Z,68.00
2022-09-24T16:29:49.561Z,68.42
2022-09-24T16:32:19.330Z,68.41
2022-09-24T16:34:48.878Z,68.56
2022-09-24T16:37:21.077Z,68.88
2022-09-24T16:39:50.596Z,68.88
2022-09-24T16:42:20.165Z,69.31
2022-09-24T16:44:49.701Z,69.28
2022-09-24T16:47:20.657Z,69.65
2022-09-24T16:49:50.437Z,69.60
2022-09-24T16:52:22.565Z,70.07
2022-09-24T16:54:52.094Z,70.05
2022-09-24T16:57:21.650Z,70.24
2022-09-24T16:59:51.173Z,70.53
2022-09-24T17:02:20.869Z,70.82
2022-09-24T17:04:52.158Z,71.16
2022-09-24T17:07:24.302Z,71.35
2022-09-24T17:10:06.314Z,71.40
2022-09-24T17:12:35.929Z,71.53
2022-09-24T17:15:05.548Z,71.78
2022-09-24T17:17:43.107Z,72.17
2022-09-24T17:20:18.345Z,72.23
2022-09-24T17:22:50.838Z,72.42
2022-09-24T17:25:20.489Z,72.48
2022-09-24T17:27:50.084Z,72.60
2022-09-24T17:30:19.702Z,73.15
2022-09-24T17:32:49.248Z,73.06
2022-09-24T17:35:19.045Z,73.01
2022-09-24T17:37:51.584Z,73.25
2022-09-24T17:40:24.087Z,73.35
2022-09-24T17:42:54.198Z,73.33
2022-09-24T17:45:24.112Z,73.45
2022-09-24T17:48:00.609Z,73.88
2022-09-24T17:50:30.328Z,73.70
2022-09-24T17:53:03.841Z,74.21
2022-09-24T17:55:33.411Z,73.91
2022-09-24T17:58:02.971Z,74.30
2022-09-24T18:00:32.757Z,74.27
2022-09-24T18:03:02.310Z,74.39
2022-09-24T18:05:31.877Z,74.45
2022-09-24T18:08:04.365Z,74.52
2022-09-24T18:10:33.888Z,74.59
2022-09-24T18:13:03.467Z,74.49
2022-09-24T18:15:33.476Z,74.73
2022-09-24T18:18:03.105Z,74.72
2022-09-24T18:20:32.827Z,74.90
2022-09-24T18:23:04.968Z,75.38
2022-09-24T18:25:34.480Z,75.40
2022-09-24T18:28:04.442Z,75.54
2022-09-24T18:30:34.014Z,75.67
2022-09-24T18:33:03.577Z,75.87
2022-09-24T18:35:33.134Z,75.99
2022-09-24T18:38:05.228Z,76.02
2022-09-24T18:40:34.817Z,76.06
2022-09-24T18:43:04.388Z,76.27
2022-09-24T18:45:33.985Z,76.52
2022-09-24T18:48:03.904Z,76.76
2022-09-24T18:50:33.436Z,76.96
2022-09-24T18:53:06.798Z,77.31
2022-09-24T18:55:40.649Z,77.20
2022-09-24T18:58:11.038Z,77.52
2022-09-24T19:00:54.735Z,77.44
2022-09-24T19:03:25.228Z,77.78
2022-09-24T19:05:55.908Z,77.83
2022-09-24T19:08:28.494Z,78.03
2022-09-24T19:10:58.432Z,78.13
2022-09-24T19:13:28.254Z,78.40
2022-09-24T19:15:57.845Z,78.59
2022-09-24T19:18:27.437Z,78.81
2022-09-24T19:20:59.574Z,78.70
2022-09-24T19:23:31.703Z,79.36
2022-09-24T19:26:05.190Z,79.36
2022-09-24T19:28:35.010Z,79.49
2022-09-24T19:31:07.207Z,79.52
2022-09-24T19:33:36.877Z,79.43
2022-09-24T19:36:06.660Z,79.56
2022-09-24T19:38:39.365Z,79.76
2022-09-24T19:41:11.435Z,79.78
2022-09-24T19:43:41.154Z,79.74
2022-09-24T19:46:12.030Z,79.42
2022-09-24T19:48:43.090Z,79.42
2022-09-24T19:51:15.589Z,79.16
2022-09-24T19:53:50.877Z,79.10
2022-09-24T19:56:22.465Z,79.28
2022-09-24T19:58:53.393Z,79.17
2022-09-24T20:01:24.110Z,79.18
2022-09-24T20:03:53.907Z,79.42
2022-09-24T20:06:24.974Z,79.21
2022-09-24T20:08:57.427Z,79.23
2022-09-24T20:11:27.474Z,79.32
2022-09-24T20:13:58.508Z,79.76
2022-09-24T20:16:31.058Z,79.85
2022-09-24T20:19:00.611Z,79.85
2022-09-24T20:21:34.432Z,80.02
2022-09-24T20:24:07.120Z,80.02
2022-09-24T20:26:49.958Z,79.68
2022-09-24T20:29:20.128Z,79.68
2022-09-24T20:31:55.250Z,80.09
2022-09-24T20:34:28.589Z,80.08
2022-09-24T20:37:00.938Z,80.17
2022-09-24T20:39:34.295Z,80.48
2022-09-24T20:42:06.113Z,80.58
2022-09-24T20:44:36.030Z,80.68
2022-09-24T20:47:05.654Z,80.91
2022-09-24T20:49:35.448Z,80.94
2022-09-24T20:52:05.809Z,81.25
2022-09-24T20:54:37.977Z,81.20
2022-09-24T20:57:07.558Z,81.17
2022-09-24T20:59:37.102Z,81.42
2022-09-24T21:02:06.884Z,81.54
2022-09-24T21:04:36.962Z,81.52
2022-09-24T21:07:06.586Z,81.70
2022-09-24T21:09:38.767Z,81.63
2022-09-24T21:12:08.625Z,81.78
2022-09-24T21:14:38.251Z,82.37
2022-09-24T21:17:10.156Z,82.28
2022-09-24T21:19:39.738Z,82.24
2022-09-24T21:22:09.397Z,82.42
2022-09-24T21:24:41.706Z,82.41
2022-09-24T21:27:11.217Z,82.62
2022-09-24T21:29:40.866Z,82.85
2022-09-24T21:32:11.061Z,82.91
2022-09-24T21:34:41.593Z,82.83
2022-09-24T21:37:13.368Z,83.05
2022-09-24T21:39:46.293Z,83.29
2022-09-24T21:42:17.152Z,83.19
2022-09-24T21:44:47.435Z,83.48
2022-09-24T21:47:17.994Z,83.35
2022-09-24T21:49:48.090Z,83.55
2022-09-24T21:52:17.629Z,83.32
2022-09-24T21:54:49.790Z,83.67
2022-09-24T21:57:19.305Z,83.43
2022-09-24T22:00:10.169Z,83.77
2022-09-24T22:02:43.361Z,83.69
2022-09-24T22:05:19.498Z,83.71
2022-09-24T22:07:49.255Z,83.69
2022-09-24T22:10:21.413Z,83.82
2022-09-24T22:12:51.050Z,83.81
2022-09-24T22:15:22.857Z,83.91
2022-09-24T22:17:52.433Z,83.82
2022-09-24T22:20:21.969Z,83.84
2022-09-24T22:22:51.604Z,83.79
2022-09-24T22:25:24.263Z,83.89
2022-09-24T22:27:54.724Z,83.80
2022-09-24T22:30:24.316Z,83.76
2022-09-24T22:32:53.846Z,83.37
2022-09-24T22:35:39.635Z,83.62
2022-09-24T22:38:12.566Z,83.38
2022-09-24T22:40:45.242Z,83.41
2022-09-24T22:43:14.899Z,83.37
2022-09-24T22:45:45.208Z,83.37
2022-09-24T22:48:14.790Z,83.27
2022-09-24T22:50:45.541Z,83.43
2022-09-24T22:53:15.270Z,83.44
2022-09-24T22:55:51.868Z,83.51
2022-09-24T22:58:22.287Z,83.71
2022-09-24T23:00:51.928Z,83.59
2022-09-24T23:03:21.515Z,83.73
2022-09-24T23:05:51.151Z,83.65
2022-09-24T23:08:20.682Z,83.65
2022-09-24T23:10:52.844Z,83.93
2022-09-24T23:13:22.400Z,83.82
2022-09-24T23:15:51.961Z,83.84
2022-09-24T23:18:21.457Z,84.16
2022-09-24T23:20:50.985Z,83.92
2022-09-24T23:23:20.514Z,84.09
2022-09-24T23:25:53.408Z,84.11
2022-09-24T23:28:22.935Z,84.04
2022-09-24T23:30:59.688Z,84.21
2022-09-24T23:33:33.138Z,84.25
2022-09-24T23:36:03.077Z,84.50
2022-09-24T23:38:32.657Z,84.34
2022-09-24T23:41:05.261Z,84.46
2022-09-24T23:43:36.015Z,84.27
2022-09-24T23:46:05.819Z,84.36
2022-09-24T23:48:35.427Z,84.60
2022-09-24T23:51:05.155Z,84.58
2022-09-24T23:53:35.023Z,84.60
2022-09-24T23:56:08.925Z,84.69
2022-09-24T23:58:38.853Z,84.81
